Time;durP1;ratioP1;P1;durP2;ratioP2;P2;SDS_P1;SDS_P2;PMS_P1;PMS_P2;Temp;Humidity;BMP_temperature;BMP_pressure;BME280_temperature;BME280_humidity;BME280_pressure;Samples;Min_cycle;Max_cycle;Signal;HPM_P1;HPM_P2
2023/01/17 00:00:19;;;;;;;0.50;0.40;;;3.50;99.90;;;;;;5033136;28;20033;-64
2023/01/17 00:02:44;;;;;;;0.20;0.20;;;3.50;99.90;;;;;;5015120;28;20112;-65
2023/01/17 00:10:40;;;;;;;0.47;0.30;;;3.60;99.90;;;;;;5032798;28;20045;-63
2023/01/17 00:13:05;;;;;;;2.22;0.40;;;3.60;99.90;;;;;;5033083;28;20041;-64
2023/01/17 00:15:31;;;;;;;0.40;0.40;;;3.60;99.90;;;;;;5032988;28;20453;-64
2023/01/17 00:17:57;;;;;;;0.45;0.22;;;3.50;99.90;;;;;;5032710;28;20059;-64
2023/01/17 00:26:03;;;;;;;0.10;0.10;;;3.50;99.90;;;;;;5036988;28;20046;-64
2023/01/17 01:35:23;;;;;;;3.03;0.30;;;2.50;99.90;;;;;;5034499;28;20485;-64
2023/01/17 01:37:48;;;;;;;0.35;0.13;;;2.50;99.90;;;;;;5035699;28;20128;-64
2023/01/17 01:40:15;;;;;;;0.25;0.25;;;2.50;99.90;;;;;;5035584;28;20037;-65
2023/01/17 01:42:59;;;;;;;1.45;0.20;;;2.70;99.90;;;;;;5035547;28;20107;-64
2023/01/17 01:45:27;;;;;;;0.30;0.20;;;2.50;99.90;;;;;;5035493;28;20088;-64
2023/01/17 01:48:11;;;;;;;0.68;0.25;;;2.50;99.90;;;;;;5017529;28;20045;-64
2023/01/17 01:50:37;;;;;;;0.93;0.70;;;2.50;99.90;;;;;;5035075;28;20045;-64
2023/01/17 01:53:05;;;;;;;4.40;0.32;;;2.50;99.90;;;;;;5035380;28;20034;-64
2023/01/17 01:55:37;;;;;;;0.10;0.10;;;2.50;99.90;;;;;;5035055;28;20052;-64
2023/01/17 01:58:17;;;;;;;0.10;0.10;;;2.50;99.90;;;;;;5035340;28;20037;-64
2023/01/17 02:00:43;;;;;;;0.57;0.17;;;2.50;99.90;;;;;;5035206;28;20492;-64
2023/01/17 02:03:14;;;;;;;3.22;0.43;;;2.50;99.90;;;;;;5017052;28;20048;-64
2023/01/17 02:05:42;;;;;;;0.20;0.20;;;2.50;99.90;;;;;;5035140;28;20056;-64
2023/01/17 02:08:11;;;;;;;1.10;0.10;;;2.50;99.90;;;;;;5017051;28;20400;-64
2023/01/17 02:10:39;;;;;;;0.88;0.40;;;2.50;99.90;;;;;;5017389;28;20100;-64
2023/01/17 02:13:06;;;;;;;0.47;0.30;;;2.50;99.90;;;;;;5035112;28;20033;-64
2023/01/17 02:15:59;;;;;;;0.28;0.25;;;2.50;99.90;;;;;;5034981;28;20069;-64
2023/01/17 02:18:48;;;;;;;0.90;0.22;;;2.50;99.90;;;;;;5034956;28;20053;-64
2023/01/17 02:21:25;;;;;;;1.10;0.38;;;2.40;99.90;;;;;;5034893;28;20065;-64
2023/01/17 02:24:21;;;;;;;0.10;0.10;;;2.30;99.90;;;;;;5000457;28;20068;-65
2023/01/17 02:27:17;;;;;;;2.83;0.20;;;2.30;99.90;;;;;;5016872;28;20037;-64
2023/01/17 02:30:14;;;;;;;4.07;0.50;;;2.30;99.90;;;;;;5031186;28;20049;-64
2023/01/17 02:32:51;;;;;;;1.30;0.17;;;2.30;99.90;;;;;;5009910;28;20457;-64
2023/01/17 02:35:55;;;;;;;1.55;0.50;;;2.30;99.90;;;;;;5034595;28;20041;-64
2023/01/17 02:38:30;;;;;;;0.95;0.30;;;2.20;99.90;;;;;;5024880;28;20472;-64
2023/01/17 02:41:19;;;;;;;0.30;0.30;;;2.20;99.90;;;;;;5016440;28;20045;-64
2023/01/17 02:43:48;;;;;;;0.93;0.63;;;3.10;99.90;;;;;;5034498;28;20477;-64
2023/01/17 02:46:14;;;;;;;0.38;0.22;;;2.20;99.90;;;;;;5034064;28;20044;-64
2023/01/17 02:48:40;;;;;;;0.30;0.20;;;2.20;99.90;;;;;;5034328;28;20469;-64
2023/01/17 02:51:24;;;;;;;3.42;0.20;;;2.20;99.90;;;;;;5034215;28;20114;-64
2023/01/17 02:53:50;;;;;;;2.30;0.20;;;2.20;99.90;;;;;;5034299;28;20048;-64
2023/01/17 02:56:38;;;;;;;0.70;0.20;;;2.30;99.90;;;;;;5034254;28;20045;-64
2023/01/17 02:59:25;;;;;;;0.15;0.15;;;2.20;99.90;;;;;;5034136;28;20126;-64
2023/01/17 03:02:09;;;;;;;0.10;0.10;;;2.30;99.90;;;;;;5034115;28;20049;-64
2023/01/17 03:04:38;;;;;;;3.63;0.43;;;2.30;99.90;;;;;;5033591;28;20075;-64
2023/01/17 03:07:15;;;;;;;0.22;0.22;;;2.30;99.90;;;;;;5033747;28;20037;-64
2023/01/17 03:09:42;;;;;;;3.78;1.10;;;2.40;99.90;;;;;;5033898;28;20448;-65
2023/01/17 03:12:08;;;;;;;1.65;0.40;;;2.40;99.90;;;;;;5016251;28;20121;-64
2023/01/17 03:14:34;;;;;;;0.93;0.20;;;2.40;99.90;;;;;;5033869;28;20542;-64
2023/01/17 03:17:00;;;;;;;2.28;0.22;;;2.40;99.90;;;;;;5033562;28;20124;-64
2023/01/17 03:19:25;;;;;;;2.30;0.32;;;2.50;99.90;;;;;;5033517;28;20044;-64
2023/01/17 03:21:51;;;;;;;1.25;0.30;;;2.50;99.90;;;;;;5015805;28;20037;-64
2023/01/17 03:24:16;;;;;;;0.20;0.20;;;2.50;99.90;;;;;;5016114;28;20049;-64
2023/01/17 03:26:43;;;;;;;0.30;0.25;;;2.60;99.90;;;;;;5033365;28;20042;-64
2023/01/17 03:29:10;;;;;;;0.20;0.20;;;2.60;99.90;;;;;;5015564;28;20061;-64
2023/01/17 03:31:35;;;;;;;7.32;0.63;;;2.50;99.90;;;;;;5033258;28;20448;-63
2023/01/17 03:34:01;;;;;;;0.75;0.30;;;2.50;99.90;;;;;;5033548;28;20037;-65
2023/01/17 03:36:27;;;;;;;6.15;0.52;;;2.50;99.90;;;;;;5033517;28;20042;-64
2023/01/17 03:38:52;;;;;;;1.15;0.85;;;2.40;99.90;;;;;;5033120;28;20037;-66
2023/01/17 03:41:18;;;;;;;4.43;0.30;;;2.40;99.90;;;;;;5033455;28;20068;-65
2023/01/17 03:43:43;;;;;;;0.20;0.20;;;2.30;99.90;;;;;;5033436;28;20068;-65
2023/01/17 03:46:23;;;;;;;2.25;0.40;;;2.40;99.90;;;;;;5033457;28;20065;-65
2023/01/17 03:48:49;;;;;;;0.28;0.28;;;2.30;99.90;;;;;;5015611;28;20041;-65
2023/01/17 03:51:15;;;;;;;4.43;0.47;;;2.30;99.90;;;;;;5033317;28;20041;-65
2023/01/17 03:53:42;;;;;;;4.57;0.20;;;2.30;99.90;;;;;;5033159;28;20033;-65
2023/01/17 03:56:08;;;;;;;4.07;0.32;;;2.30;99.90;;;;;;5015303;28;20080;-64
2023/01/17 03:58:33;;;;;;;0.20;0.20;;;2.50;99.90;;;;;;5032509;28;20441;-65
2023/01/17 04:00:59;;;;;;;7.13;0.30;;;2.40;99.90;;;;;;5033145;28;20045;-64
2023/01/17 04:03:24;;;;;;;1.38;0.40;;;2.30;99.90;;;;;;5032800;28;20064;-65
2023/01/17 04:05:50;;;;;;;0.77;0.20;;;2.30;99.90;;;;;;5032870;28;20048;-65
2023/01/17 04:08:16;;;;;;;8.00;0.50;;;2.40;99.90;;;;;;5015565;28;20091;-64
2023/01/17 04:10:41;;;;;;;0.45;0.30;;;2.40;99.90;;;;;;5033116;28;20404;-65
2023/01/17 04:13:07;;;;;;;0.45;0.20;;;2.40;99.90;;;;;;5033062;28;20037;-64
2023/01/17 04:15:33;;;;;;;0.85;0.30;;;2.30;99.90;;;;;;5032964;28;20478;-65
2023/01/17 04:17:59;;;;;;;1.35;0.20;;;2.40;99.90;;;;;;5032664;28;20481;-64
2023/01/17 04:20:32;;;;;;;0.43;0.38;;;2.30;99.90;;;;;;5014884;28;20172;-64
2023/01/17 04:22:57;;;;;;;0.63;0.30;;;2.30;99.90;;;;;;5032681;28;20045;-64
2023/01/17 04:25:24;;;;;;;0.50;0.30;;;2.20;99.90;;;;;;5032892;28;20045;-64
2023/01/17 04:27:51;;;;;;;0.10;0.10;;;2.10;99.90;;;;;;5032865;28;20042;-65
2023/01/17 04:30:16;;;;;;;2.17;0.32;;;2.10;99.90;;;;;;5014946;28;20073;-64
2023/01/17 04:32:42;;;;;;;3.85;0.43;;;2.10;99.90;;;;;;5032849;28;20439;-64
2023/01/17 04:35:08;;;;;;;0.75;0.75;;;2.10;99.90;;;;;;5032900;28;20171;-64
2023/01/17 04:37:34;;;;;;;3.58;0.30;;;2.10;99.90;;;;;;5014805;28;20160;-64
2023/01/17 04:40:00;;;;;;;0.22;0.20;;;2.00;99.90;;;;;;5032679;28;20118;-64
2023/01/17 04:42:25;;;;;;;2.70;0.40;;;2.00;99.90;;;;;;5032790;28;20038;-64
2023/01/17 04:44:51;;;;;;;0.98;0.20;;;2.00;99.90;;;;;;5032434;28;20485;-64
2023/01/17 04:47:16;;;;;;;3.90;0.40;;;2.00;99.90;;;;;;5032765;28;20084;-64
2023/01/17 04:49:42;;;;;;;2.92;0.22;;;1.90;99.90;;;;;;5015063;28;20041;-64
2023/01/17 04:52:08;;;;;;;3.35;0.68;;;1.90;99.90;;;;;;5032688;28;20480;-64
2023/01/17 04:54:33;;;;;;;0.47;0.28;;;1.90;99.90;;;;;;5032611;28;20121;-64
2023/01/17 04:56:59;;;;;;;1.65;0.20;;;1.80;99.90;;;;;;5032660;28;20091;-64
2023/01/17 04:59:24;;;;;;;1.25;0.20;;;1.80;99.90;;;;;;5032493;28;20052;-64
2023/01/17 05:01:50;;;;;;;1.17;0.40;;;1.80;99.90;;;;;;5032687;28;20493;-64
2023/01/17 05:04:16;;;;;;;2.72;0.20;;;1.70;99.90;;;;;;5032370;28;20049;-64
2023/01/17 05:06:43;;;;;;;3.47;0.40;;;1.70;99.90;;;;;;5032527;28;20045;-64
2023/01/17 05:09:09;;;;;;;0.55;0.55;;;1.70;99.90;;;;;;5033356;28;20107;-64
2023/01/17 05:11:35;;;;;;;0.65;0.38;;;1.60;99.90;;;;;;5018174;28;20045;-64
2023/01/17 05:14:00;;;;;;;8.68;0.45;;;1.60;99.90;;;;;;5036183;28;20101;-64
2023/01/17 05:16:26;;;;;;;0.43;0.32;;;1.60;99.90;;;;;;5001784;28;20044;-64
2023/01/17 05:18:52;;;;;;;0.10;0.10;;;1.60;99.90;;;;;;5018040;28;20439;-64
2023/01/17 05:21:19;;;;;;;2.95;0.63;;;1.60;99.90;;;;;;5035949;28;20076;-65
2023/01/17 05:23:45;;;;;;;1.65;0.60;;;1.60;99.90;;;;;;5035952;28;20038;-65
2023/01/17 05:26:11;;;;;;;5.38;0.90;;;1.50;99.90;;;;;;5017936;28;20046;-64
2023/01/17 05:28:37;;;;;;;1.70;0.50;;;1.50;99.90;;;;;;5035924;28;20109;-65
2023/01/17 05:31:02;;;;;;;0.20;0.20;;;1.40;99.90;;;;;;5017835;28;20045;-64
2023/01/17 05:33:28;;;;;;;0.35;0.20;;;1.50;99.90;;;;;;5017847;28;20041;-64
2023/01/17 05:35:53;;;;;;;0.10;0.10;;;1.40;99.90;;;;;;5035496;28;20489;-64
2023/01/17 05:38:19;;;;;;;2.20;0.20;;;1.40;99.90;;;;;;5035691;28;20042;-64
2023/01/17 05:40:45;;;;;;;3.97;0.40;;;1.30;99.90;;;;;;5035623;28;20049;-64
2023/01/17 05:43:10;;;;;;;0.40;0.35;;;1.30;99.90;;;;;;5035657;28;20034;-64
2023/01/17 05:45:36;;;;;;;0.10;0.10;;;1.30;99.90;;;;;;5017907;28;20048;-64
2023/01/17 05:48:03;;;;;;;2.85;0.52;;;1.30;99.90;;;;;;5035499;28;20495;-64
2023/01/17 05:50:32;;;;;;;0.45;0.22;;;1.30;99.90;;;;;;5017493;28;20404;-64
2023/01/17 05:53:06;;;;;;;0.20;0.20;;;1.30;99.90;;;;;;5035363;28;20052;-64
2023/01/17 05:55:33;;;;;;;1.05;0.65;;;1.20;99.90;;;;;;5035389;28;20048;-64
2023/01/17 05:57:59;;;;;;;1.45;0.40;;;1.20;99.90;;;;;;5017665;28;20049;-64
2023/01/17 06:00:25;;;;;;;0.20;0.13;;;1.20;99.90;;;;;;5017173;28;20045;-64
2023/01/17 06:02:54;;;;;;;3.10;0.30;;;1.20;99.90;;;;;;5034995;28;20034;-64
2023/01/17 06:05:21;;;;;;;0.77;0.20;;;1.20;99.90;;;;;;5017079;28;20056;-64
2023/01/17 06:07:47;;;;;;;0.10;0.10;;;1.10;99.90;;;;;;5035189;28;20033;-64
2023/01/17 06:10:15;;;;;;;1.60;0.38;;;1.10;99.90;;;;;;5035153;28;20041;-64
2023/01/17 06:12:41;;;;;;;0.22;0.20;;;1.00;99.90;;;;;;5034756;28;20041;-64
2023/01/17 06:15:07;;;;;;;1.30;0.32;;;1.00;99.90;;;;;;5035010;28;20037;-64
2023/01/17 06:17:34;;;;;;;0.75;0.40;;;0.90;99.90;;;;;;5034928;28;20041;-64
2023/01/17 06:19:59;;;;;;;0.60;0.30;;;0.90;99.90;;;;;;5034626;28;20045;-63
2023/01/17 06:22:25;;;;;;;0.98;0.43;;;0.90;99.90;;;;;;5034246;28;20045;-63
2023/01/17 06:24:50;;;;;;;1.27;0.40;;;0.80;99.90;;;;;;5034825;28;20515;-63
2023/01/17 06:27:16;;;;;;;1.67;0.40;;;0.80;99.90;;;;;;5034440;28;20037;-62
2023/01/17 06:29:42;;;;;;;0.10;0.10;;;0.80;99.90;;;;;;5034484;28;20128;-64
2023/01/17 06:32:12;;;;;;;1.02;0.30;;;0.80;99.90;;;;;;5034707;28;20038;-62
2023/01/17 06:34:37;;;;;;;2.85;0.47;;;0.80;99.90;;;;;;5034586;28;20049;-63
2023/01/17 06:37:03;;;;;;;0.77;0.15;;;0.80;99.90;;;;;;5034577;28;20404;-64
2023/01/17 06:39:28;;;;;;;0.75;0.20;;;0.80;99.90;;;;;;5034185;28;20040;-63
2023/01/17 06:41:54;;;;;;;0.32;0.30;;;0.80;99.90;;;;;;5034477;28;20060;-63
2023/01/17 06:44:20;;;;;;;4.82;0.65;;;0.80;99.90;;;;;;5034475;28;20393;-63
2023/01/17 06:46:46;;;;;;;0.80;0.30;;;0.70;99.90;;;;;;5034328;28;20083;-63
2023/01/17 06:49:13;;;;;;;0.57;0.25;;;0.70;99.90;;;;;;5034052;28;20046;-63
2023/01/17 06:51:38;;;;;;;0.30;0.30;;;0.70;99.90;;;;;;5034338;28;20049;-61
2023/01/17 06:54:04;;;;;;;1.73;0.70;;;0.60;99.90;;;;;;5034261;28;20532;-62
2023/01/17 06:56:31;;;;;;;0.47;0.30;;;0.70;99.90;;;;;;5033813;28;20443;-62
2023/01/17 06:58:56;;;;;;;0.30;0.20;;;0.70;99.90;;;;;;5034035;28;20034;-63
2023/01/17 07:01:22;;;;;;;0.20;0.20;;;0.60;99.90;;;;;;5034059;28;20060;-61
2023/01/17 07:03:48;;;;;;;2.97;0.32;;;0.60;99.90;;;;;;4999667;28;20054;-61
2023/01/17 07:06:13;;;;;;;0.10;0.10;;;0.60;99.90;;;;;;5034068;28;20068;-62
2023/01/17 07:08:39;;;;;;;1.55;0.75;;;0.60;99.90;;;;;;5034030;28;20092;-63
2023/01/17 07:11:07;;;;;;;1.65;0.35;;;0.60;99.90;;;;;;5034023;28;20480;-63
2023/01/17 07:13:34;;;;;;;3.30;0.57;;;0.60;99.90;;;;;;5015991;28;20396;-63
2023/01/17 07:16:00;;;;;;;2.45;0.65;;;0.60;99.90;;;;;;5015877;28;20065;-63
2023/01/17 07:18:27;;;;;;;3.83;0.38;;;0.60;99.90;;;;;;4999536;28;20448;-63
2023/01/17 07:20:53;;;;;;;0.73;0.40;;;0.60;99.90;;;;;;5033770;28;20100;-62
2023/01/17 07:23:20;;;;;;;0.28;0.20;;;0.50;99.90;;;;;;5033672;28;20037;-62
2023/01/17 07:25:53;;;;;;;0.30;0.25;;;0.50;99.90;;;;;;5033719;28;20038;-62
2023/01/17 07:28:19;;;;;;;1.17;0.40;;;0.50;99.90;;;;;;5033675;28;20041;-64
2023/01/17 07:30:45;;;;;;;0.13;0.13;;;0.50;99.90;;;;;;5033548;28;20041;-64
2023/01/17 07:33:10;;;;;;;0.20;0.20;;;0.50;99.90;;;;;;5014696;28;20091;-63
2023/01/17 07:35:36;;;;;;;0.10;0.10;;;0.50;99.90;;;;;;5033548;28;20481;-63
2023/01/17 07:38:04;;;;;;;0.20;0.20;;;0.50;99.90;;;;;;5015628;28;20091;-63
2023/01/17 07:40:30;;;;;;;0.38;0.20;;;0.50;99.90;;;;;;5033410;28;20084;-63
2023/01/17 07:43:12;;;;;;;0.28;0.20;;;0.60;99.90;;;;;;5016015;28;20072;-63
2023/01/17 07:45:45;;;;;;;;;;;0.60;99.90;;;;;;5033412;28;20045;-63
2023/01/17 07:48:11;;;;;;;2.17;0.70;;;0.60;99.90;;;;;;5033031;28;19917;-63
2023/01/17 07:50:37;;;;;;;0.52;0.52;;;0.60;99.90;;;;;;5033197;28;20037;-63
2023/01/17 07:53:04;;;;;;;0.28;0.28;;;0.60;99.90;;;;;;5033125;28;20069;-64
2023/01/17 07:55:30;;;;;;;2.92;0.50;;;0.60;99.90;;;;;;5033063;28;20037;-63
2023/01/17 07:57:56;;;;;;;0.80;0.50;;;0.70;99.90;;;;;;5032757;28;20107;-64
2023/01/17 08:00:22;;;;;;;0.60;0.55;;;0.70;99.90;;;;;;5032645;28;20033;-63
2023/01/17 08:02:48;;;;;;;1.65;0.38;;;0.70;99.90;;;;;;5032892;28;20030;-63
2023/01/17 08:05:14;;;;;;;2.55;1.42;;;0.70;99.90;;;;;;4995307;28;20101;-64
2023/01/17 08:07:40;;;;;;;0.30;0.30;;;0.80;99.90;;;;;;5013076;28;20080;-64
2023/01/17 08:10:07;;;;;;;0.30;0.30;;;0.70;99.90;;;;;;5011686;28;20125;-65
2023/01/17 08:12:34;;;;;;;0.30;0.25;;;0.70;99.90;;;;;;5012847;28;20540;-65
2023/01/17 08:15:00;;;;;;;0.52;0.40;;;0.70;99.90;;;;;;5012881;28;20057;-63
2023/01/17 08:17:27;;;;;;;6.53;0.80;;;0.70;99.90;;;;;;5013258;28;20034;-63
2023/01/17 08:19:52;;;;;;;4.60;0.35;;;0.70;99.90;;;;;;5013179;28;20042;-63
2023/01/17 08:22:18;;;;;;;0.45;0.38;;;0.70;99.90;;;;;;5013219;28;20041;-63
2023/01/17 08:24:44;;;;;;;5.50;0.65;;;0.80;99.90;;;;;;5011665;28;20540;-63
2023/01/17 08:27:09;;;;;;;0.10;0.10;;;0.80;99.90;;;;;;5012901;28;20049;-64
2023/01/17 08:29:35;;;;;;;0.10;0.10;;;0.90;99.90;;;;;;5011944;28;20100;-64
2023/01/17 08:32:01;;;;;;;2.53;0.30;;;0.90;99.90;;;;;;5013158;28;20038;-63
2023/01/17 08:34:27;;;;;;;3.47;0.77;;;0.90;99.90;;;;;;5013144;28;20052;-64
2023/01/17 08:36:53;;;;;;;4.40;1.27;;;1.00;99.90;;;;;;5012873;28;20037;-63
2023/01/17 08:39:19;;;;;;;0.65;0.13;;;1.00;99.90;;;;;;5012914;28;20069;-63
2023/01/17 08:41:45;;;;;;;0.73;0.25;;;1.00;99.90;;;;;;5013109;28;20034;-61
2023/01/17 08:44:10;;;;;;;0.30;0.30;;;1.70;99.90;;;;;;5013579;28;20038;-62
2023/01/17 08:46:37;;;;;;;10.00;1.20;;;1.10;99.90;;;;;;5016744;28;20493;-63
2023/01/17 08:49:03;;;;;;;0.70;0.65;;;1.20;99.90;;;;;;5015166;28;20046;-62
2023/01/17 08:51:30;;;;;;;4.03;0.70;;;1.20;99.90;;;;;;5016587;28;20038;-63
2023/01/17 08:53:56;;;;;;;0.45;0.30;;;1.30;99.90;;;;;;5016747;28;20456;-63
2023/01/17 08:56:22;;;;;;;3.30;1.52;;;1.30;99.90;;;;;;5016395;28;20092;-62
2023/01/17 08:58:48;;;;;;;2.45;0.73;;;1.30;99.90;;;;;;5015200;28;20412;-61
2023/01/17 09:01:14;;;;;;;3.38;1.38;;;1.30;99.90;;;;;;5016598;28;20045;-61
2023/01/17 09:03:40;;;;;;;2.78;0.70;;;1.40;99.90;;;;;;5020217;28;20046;-61
2023/01/17 09:06:09;;;;;;;3.45;1.52;;;1.40;99.90;;;;;;5036240;28;20069;-60
2023/01/17 09:08:35;;;;;;;1.08;0.52;;;1.50;99.90;;;;;;5036272;28;20030;-61
2023/01/17 09:11:10;;;;;;;1.15;0.68;;;1.50;99.90;;;;;;5018082;28;20045;-61
2023/01/17 09:13:37;;;;;;;1.48;0.57;;;1.50;99.90;;;;;;5036137;28;20048;-61
2023/01/17 09:16:03;;;;;;;6.90;0.80;;;1.50;99.90;;;;;;5035829;28;20041;-61
2023/01/17 09:18:29;;;;;;;0.73;0.73;;;1.60;99.90;;;;;;5035743;28;20045;-61
2023/01/17 09:20:58;;;;;;;1.80;0.60;;;1.60;99.90;;;;;;5017950;28;20072;-61
2023/01/17 09:23:25;;;;;;;1.98;0.32;;;1.60;99.90;;;;;;5017900;28;20041;-69
2023/01/17 09:25:56;;;;;;;0.98;0.35;;;1.60;99.90;;;;;;5001538;28;20136;-62
2023/01/17 09:28:22;;;;;;;0.82;0.60;;;1.60;99.90;;;;;;5035887;28;20147;-62
2023/01/17 09:30:48;;;;;;;2.20;0.50;;;1.60;99.90;;;;;;5035474;28;20052;-62
2023/01/17 09:33:14;;;;;;;0.65;0.38;;;1.70;99.90;;;;;;5017709;28;20037;-62
2023/01/17 09:35:40;;;;;;;6.70;0.88;;;1.70;99.90;;;;;;5035725;28;20492;-62
2023/01/17 09:38:05;;;;;;;0.38;0.38;;;1.80;99.90;;;;;;5017755;28;20041;-64
2023/01/17 09:40:31;;;;;;;0.32;0.32;;;1.80;99.90;;;;;;5035595;28;20105;-64
2023/01/17 09:43:02;;;;;;;1.10;0.38;;;1.90;99.90;;;;;;5035435;28;20047;-62
2023/01/17 09:45:32;;;;;;;1.05;0.30;;;1.90;99.90;;;;;;5035270;28;20041;-62
2023/01/17 09:48:00;;;;;;;0.55;0.30;;;2.00;99.90;;;;;;5017550;28;20045;-61
2023/01/17 09:50:52;;;;;;;0.30;0.30;;;2.00;99.90;;;;;;5035534;28;20041;-61
2023/01/17 09:53:22;;;;;;;3.15;0.35;;;2.00;99.90;;;;;;5017042;28;20053;-62
2023/01/17 09:56:01;;;;;;;2.05;0.25;;;2.10;99.90;;;;;;5034174;28;20041;-63
2023/01/17 09:58:48;;;;;;;0.38;0.20;;;2.10;99.90;;;;;;5017236;28;20041;-62
2023/01/17 10:01:19;;;;;;;1.35;0.55;;;2.20;99.90;;;;;;5017173;28;20041;-62
2023/01/17 10:04:16;;;;;;;1.85;0.50;;;2.20;99.90;;;;;;5034808;28;20409;-62
2023/01/17 10:06:57;;;;;;;3.40;0.30;;;2.20;99.90;;;;;;5034840;28;20045;-63
2023/01/17 10:09:36;;;;;;;0.10;0.10;;;2.30;99.90;;;;;;5035165;28;20042;-62
2023/01/17 10:12:02;;;;;;;1.35;0.55;;;2.30;99.90;;;;;;5035078;28;20053;-65
2023/01/17 10:14:52;;;;;;;3.22;1.05;;;2.40;99.90;;;;;;5017089;28;20500;-62
2023/01/17 10:17:26;;;;;;;5.43;0.75;;;2.40;99.90;;;;;;5034950;28;20128;-63
2023/01/17 10:20:06;;;;;;;0.98;0.22;;;2.50;99.90;;;;;;5034836;28;20179;-62
2023/01/17 10:23:02;;;;;;;2.63;0.50;;;2.60;99.90;;;;;;5016889;28;20045;-62
2023/01/17 10:25:32;;;;;;;1.02;0.93;;;2.70;99.90;;;;;;5034603;28;20456;-63
2023/01/17 10:28:04;;;;;;;0.50;0.50;;;2.90;99.90;;;;;;5034752;28;20412;-63
2023/01/17 10:30:41;;;;;;;1.42;0.70;;;2.90;99.90;;;;;;5017037;28;20088;-63
2023/01/17 10:33:22;;;;;;;1.38;0.52;;;2.80;99.90;;;;;;5034702;28;20052;-63
2023/01/17 10:36:17;;;;;;;0.50;0.45;;;2.90;99.90;;;;;;5034676;28;20493;-63
2023/01/17 10:38:52;;;;;;;1.02;0.52;;;2.90;99.90;;;;;;5010936;28;20049;-62
2023/01/17 10:41:25;;;;;;;0.90;0.45;;;2.90;99.90;;;;;;5016462;28;20060;-63
2023/01/17 10:44:08;;;;;;;0.57;0.45;;;3.20;99.90;;;;;;5034440;28;20504;-63
2023/01/17 10:46:41;;;;;;;2.65;0.30;;;2.90;99.90;;;;;;5034022;28;20064;-63
2023/01/17 10:49:22;;;;;;;2.92;0.52;;;2.90;99.90;;;;;;5034328;28;20444;-63
2023/01/17 10:52:09;;;;;;;0.90;0.40;;;3.00;99.90;;;;;;5016385;28;20045;-64
2023/01/17 10:54:37;;;;;;;0.93;0.47;;;3.00;99.90;;;;;;5034218;28;20041;-62
2023/01/17 10:57:03;;;;;;;1.10;0.40;;;3.00;99.90;;;;;;5034013;28;20050;-61
2023/01/17 10:59:32;;;;;;;0.47;0.47;;;3.10;99.90;;;;;;5034065;28;20378;-63
2023/01/17 11:02:05;;;;;;;1.35;0.40;;;3.10;99.90;;;;;;5033914;28;20041;-65
2023/01/17 11:04:40;;;;;;;0.15;0.10;;;3.20;99.90;;;;;;5033607;28;20054;-63
2023/01/17 11:07:22;;;;;;;3.20;0.85;;;3.20;99.90;;;;;;5033789;28;20477;-65
2023/01/17 11:09:53;;;;;;;0.22;0.22;;;;;;;;;;4999838;28;20088;-63
2023/01/17 11:12:40;;;;;;;1.58;0.40;;;3.30;99.90;;;;;;5033997;28;20049;-63
2023/01/17 11:15:08;;;;;;;1.73;0.93;;;3.30;99.90;;;;;;5033636;28;20128;-65
2023/01/17 11:17:58;;;;;;;6.82;0.30;;;3.40;99.90;;;;;;5033559;28;20377;-62
2023/01/17 11:20:42;;;;;;;3.35;0.70;;;3.50;99.90;;;;;;5016018;28;20038;-64
2023/01/17 11:23:20;;;;;;;1.90;0.80;;;3.50;99.90;;;;;;5033737;28;20496;-65
2023/01/17 11:26:01;;;;;;;0.60;0.50;;;3.60;99.90;;;;;;5015701;28;20049;-64
2023/01/17 11:28:37;;;;;;;;;;;3.70;99.90;;;;;;5016269;28;20080;-65
2023/01/17 11:31:25;;;;;;;1.30;0.60;;;3.80;99.90;;;;;;5033378;28;19967;-67
2023/01/17 11:34:06;;;;;;;2.85;0.80;;;3.80;99.90;;;;;;5033519;28;20037;-66
2023/01/17 11:36:32;;;;;;;0.63;0.40;;;3.90;99.90;;;;;;5033487;28;20044;-65
2023/01/17 11:39:04;;;;;;;1.90;0.63;;;4.00;99.90;;;;;;5033398;28;20041;-64
2023/01/17 11:41:39;;;;;;;;;;;4.20;99.90;;;;;;5033893;28;20103;-65
2023/01/17 11:44:25;;;;;;;3.30;0.73;;;4.40;99.90;;;;;;5033171;28;20015;-64
2023/01/17 11:47:11;;;;;;;0.80;0.38;;;4.50;99.90;;;;;;5033320;28;20041;-64
2023/01/17 11:49:42;;;;;;;6.03;1.45;;;4.50;99.90;;;;;;5033207;28;20041;-63
2023/01/17 11:52:24;;;;;;;0.95;0.43;;;4.60;99.90;;;;;;5033266;28;20082;-64
2023/01/17 11:54:52;;;;;;;1.85;0.88;;;4.70;99.90;;;;;;5033256;28;20404;-63
2023/01/17 11:57:33;;;;;;;5.70;0.82;;;4.80;99.90;;;;;;5015235;28;20405;-64
2023/01/17 12:00:30;;;;;;;1.60;0.90;;;5.00;99.90;;;;;;5015159;28;20091;-64
2023/01/17 12:03:31;;;;;;;2.60;0.90;;;5.30;99.90;;;;;;5015439;28;20045;-62
2023/01/17 12:06:35;;;;;;;3.83;0.70;;;5.70;99.90;;;;;;5033111;28;20045;-64
2023/01/17 12:09:36;;;;;;;1.17;0.50;;;6.00;99.90;;;;;;5015184;28;20050;-63
2023/01/17 12:15:12;;;;;;;1.98;0.40;;;6.30;99.90;;;;;;5033020;28;20037;-65
2023/01/17 12:18:04;;;;;;;0.75;0.38;;;6.40;99.90;;;;;;5015134;28;20054;-64
2023/01/17 12:20:59;;;;;;;2.17;0.70;;;6.50;99.90;;;;;;5036029;28;20058;-63
2023/01/17 12:23:49;;;;;;;3.58;0.50;;;6.70;99.90;;;;;;5018982;28;20049;-63
2023/01/17 12:26:27;;;;;;;0.95;0.45;;;6.70;99.90;;;;;;5037005;28;20033;-65
2023/01/17 12:28:55;;;;;;;1.17;0.40;;;6.50;99.90;;;;;;5019215;28;20041;-63
2023/01/17 12:31:33;;;;;;;1.13;0.60;;;6.30;99.90;;;;;;5036902;28;20045;-64
2023/01/17 12:34:18;;;;;;;1.65;0.35;;;5.90;99.90;;;;;;5036906;28;20038;-64
2023/01/17 12:36:50;;;;;;;1.25;0.60;;;5.60;99.90;;;;;;5019195;28;20049;-64
2023/01/17 12:39:18;;;;;;;0.80;0.60;;;5.30;99.90;;;;;;5018738;28;20045;-64
2023/01/17 12:41:58;;;;;;;2.47;0.75;;;5.10;99.90;;;;;;5019047;28;20489;-64
2023/01/17 12:44:46;;;;;;;5.80;0.68;;;5.00;99.90;;;;;;5018673;28;20044;-64
2023/01/17 12:47:14;;;;;;;2.63;0.35;;;4.90;99.90;;;;;;5018674;28;20120;-64
2023/01/17 12:50:10;;;;;;;1.30;0.40;;;4.80;99.90;;;;;;5018675;28;20116;-64
2023/01/17 12:52:50;;;;;;;1.40;0.63;;;4.70;99.90;;;;;;5018852;28;20488;-64
2023/01/17 12:55:40;;;;;;;1.25;0.63;;;4.70;99.90;;;;;;5036540;28;20430;-64
2023/01/17 12:58:15;;;;;;;2.63;0.50;;;4.80;99.90;;;;;;5027463;28;20440;-64
2023/01/17 13:00:44;;;;;;;0.95;0.50;;;4.90;99.90;;;;;;5036302;28;20045;-64
2023/01/17 13:03:41;;;;;;;1.65;0.50;;;4.90;99.90;;;;;;5036408;28;20610;-63
2023/01/17 13:06:10;;;;;;;1.55;0.40;;;4.90;99.90;;;;;;5036348;28;20037;-64
2023/01/17 13:08:45;;;;;;;0.50;0.40;;;4.70;99.90;;;;;;5019158;28;20033;-64
2023/01/17 13:11:26;;;;;;;0.35;0.25;;;4.70;99.90;;;;;;5018298;28;20052;-64
2023/01/17 13:13:56;;;;;;;0.65;0.38;;;4.60;99.90;;;;;;5036200;28;20041;-64
2023/01/17 13:16:45;;;;;;;1.05;0.38;;;4.50;99.90;;;;;;5036045;28;20037;-63
2023/01/17 13:19:25;;;;;;;5.65;0.40;;;4.50;99.90;;;;;;5036005;28;20045;-63
2023/01/17 13:21:52;;;;;;;4.05;1.40;;;4.40;99.90;;;;;;5035978;28;20125;-63
2023/01/17 13:24:25;;;;;;;0.20;0.20;;;4.50;99.90;;;;;;5036020;28;20073;-64
2023/01/17 13:27:13;;;;;;;0.38;0.28;;;4.40;99.90;;;;;;5035696;28;20044;-63
2023/01/17 13:30:10;;;;;;;0.20;0.20;;;4.30;99.90;;;;;;5018068;28;20051;-63
2023/01/17 13:32:58;;;;;;;4.25;0.73;;;4.30;99.90;;;;;;5035814;28;20130;-63
2023/01/17 13:36:01;;;;;;;5.40;0.60;;;4.30;99.90;;;;;;5035817;28;20042;-63
2023/01/17 13:38:41;;;;;;;3.22;0.30;;;4.30;99.90;;;;;;5012011;28;20103;-63
2023/01/17 13:41:41;;;;;;;0.13;0.13;;;4.40;99.90;;;;;;5035672;28;20045;-63
2023/01/17 13:44:21;;;;;;;1.30;0.60;;;4.40;99.30;;;;;;5017725;28;20132;-64
2023/01/17 13:47:20;;;;;;;0.30;0.30;;;4.40;99.90;;;;;;5035315;28;20041;-63
2023/01/17 13:49:47;;;;;;;0.25;0.25;;;4.30;99.30;;;;;;5002263;28;20049;-63
2023/01/17 13:52:19;;;;;;;1.38;0.30;;;4.30;99.40;;;;;;5035234;28;20038;-63
2023/01/17 13:54:48;;;;;;;2.60;0.30;;;4.30;99.30;;;;;;5035409;28;20114;-63
2023/01/17 13:57:31;;;;;;;0.63;0.25;;;4.20;99.30;;;;;;5035091;28;20042;-63
2023/01/17 14:00:26;;;;;;;1.52;0.60;;;4.20;97.40;;;;;;5017654;28;20535;-64
2023/01/17 14:02:52;;;;;;;0.40;0.40;;;4.10;99.90;;;;;;5007939;28;20046;-64
2023/01/17 14:05:24;;;;;;;0.95;0.45;;;4.10;99.90;;;;;;5034930;28;20038;-65
2023/01/17 14:08:03;;;;;;;0.45;0.20;;;4.10;99.90;;;;;;5035220;28;20539;-63
2023/01/17 14:10:41;;;;;;;0.30;0.30;;;4.10;98.80;;;;;;5017180;28;20077;-63
2023/01/17 14:13:31;;;;;;;1.08;0.40;;;4.00;98.90;;;;;;5035021;28;20060;-63
2023/01/17 14:15:57;;;;;;;1.33;0.70;;;4.00;99.90;;;;;;5035098;28;20693;-63
2023/01/17 14:18:42;;;;;;;1.42;0.85;;;4.00;99.90;;;;;;5016898;28;20077;-63
2023/01/17 14:21:21;;;;;;;1.98;1.08;;;4.00;99.90;;;;;;5034787;28;20040;-63
2023/01/17 14:24:04;;;;;;;4.47;0.75;;;4.00;99.90;;;;;;5017057;28;20072;-63
2023/01/17 14:26:32;;;;;;;0.25;0.25;;;4.00;96.60;;;;;;5034741;28;20041;-63
2023/01/17 14:29:18;;;;;;;2.20;0.45;;;4.20;97.70;;;;;;5000767;28;20098;-63
2023/01/17 14:31:44;;;;;;;0.90;0.50;;;4.30;99.90;;;;;;5034302;28;20051;-63
2023/01/17 14:34:21;;;;;;;0.30;0.30;;;4.50;99.80;;;;;;5016702;28;20501;-64
2023/01/17 14:36:47;;;;;;;0.20;0.20;;;4.50;97.70;;;;;;5034553;28;20052;-64
2023/01/17 14:39:22;;;;;;;0.25;0.22;;;4.40;99.30;;;;;;5000140;28;20076;-64
2023/01/17 14:41:47;;;;;;;1.38;0.30;;;4.30;96.70;;;;;;5033597;28;20052;-64
2023/01/17 14:44:13;;;;;;;0.17;0.17;;;4.20;99.80;;;;;;5034448;28;20042;-64